createdAt,value
2023-01-17T00:00:35.438Z,30.31306
2023-01-17T00:05:36.401Z,30.34335
2023-01-17T00:10:37.328Z,30.44309
2023-01-17T00:15:38.218Z,30.55486
2023-01-17T00:20:39.151Z,30.72617
2023-01-17T00:25:40.044Z,30.83125
2023-01-17T00:30:40.965Z,30.96037
2023-01-17T00:35:41.877Z,30.9538
2023-01-17T00:40:42.815Z,31.04204
2023-01-17T00:45:43.752Z,31.12382
2023-01-17T00:50:44.949Z,31.20543
2023-01-17T00:55:46.118Z,31.25811
2023-01-17T01:00:47.253Z,31.29914
2023-01-17T01:05:48.199Z,31.39332
2023-01-17T01:10:49.130Z,31.44538
2023-01-17T01:15:50.265Z,31.43957
2023-01-17T01:20:56.282Z,31.51488
2023-01-17T01:25:57.237Z,31.52008
2023-01-17T01:30:58.376Z,31.58329
2023-01-17T01:35:59.269Z,31.55231
2023-01-17T01:41:00.197Z,31.45222
2023-01-17T01:46:01.181Z,31.48965
2023-01-17T01:51:02.211Z,31.48546
2023-01-17T01:56:03.120Z,31.65301
2023-01-17T02:01:04.152Z,31.61863
2023-01-17T02:06:05.109Z,31.68144
2023-01-17T02:11:06.072Z,31.58692
2023-01-17T02:16:07.024Z,31.5173
2023-01-17T02:21:08.017Z,31.5167
2023-01-17T02:26:08.934Z,31.46276
2023-01-17T02:31:09.964Z,31.46322
2023-01-17T02:36:10.857Z,31.4103
2023-01-17T02:41:11.764Z,31.43357
2023-01-17T02:46:12.862Z,31.42727
2023-01-17T02:51:13.819Z,31.37508
2023-01-17T02:56:14.716Z,31.36775
2023-01-17T03:01:15.788Z,31.37302
2023-01-17T03:06:16.844Z,31.28526
2023-01-17T03:11:17.773Z,31.28479
2023-01-17T03:16:18.780Z,31.27209
2023-01-17T03:21:19.737Z,31.38771
2023-01-17T03:26:20.659Z,31.4962
2023-01-17T03:31:21.564Z,31.56965
2023-01-17T03:36:22.489Z,31.45738
2023-01-17T03:41:23.497Z,31.52043
2023-01-17T03:46:24.436Z,31.54839
2023-01-17T03:51:25.378Z,31.55849
2023-01-17T03:56:26.478Z,31.54087
2023-01-17T04:01:27.512Z,31.6042
2023-01-17T04:06:28.541Z,31.67993
2023-01-17T04:11:29.554Z,31.68538
2023-01-17T04:16:30.504Z,31.76138
2023-01-17T04:21:31.607Z,32.00586
2023-01-17T04:26:32.539Z,32.12157
2023-01-17T04:31:33.742Z,32.29033
2023-01-17T04:36:34.814Z,32.40027
2023-01-17T04:41:35.818Z,32.5686
2023-01-17T04:46:36.728Z,32.60267
2023-01-17T04:51:37.655Z,32.67718
2023-01-17T04:56:38.673Z,32.71107
2023-01-17T05:01:39.973Z,32.7802
2023-01-17T05:06:40.979Z,33.34935
2023-01-17T05:11:41.931Z,33.74323
2023-01-17T05:16:42.858Z,33.96327
2023-01-17T05:21:43.797Z,34.359
2023-01-17T05:26:45.068Z,34.41622
2023-01-17T05:31:46.415Z,34.45704
2023-01-17T05:36:47.500Z,34.66089
2023-01-17T05:41:48.551Z,34.66674
2023-01-17T05:46:49.829Z,34.85351
2023-01-17T05:51:51.193Z,34.82989
2023-01-17T05:56:53.678Z,34.83015
2023-01-17T06:01:54.672Z,34.81236
2023-01-17T06:06:55.737Z,34.75981
2023-01-17T06:11:56.704Z,34.75513
2023-01-17T06:16:57.637Z,34.76015
2023-01-17T06:21:58.644Z,34.70186
2023-01-17T06:26:59.844Z,34.6554
2023-01-17T06:32:01.754Z,34.6092
2023-01-17T06:37:02.904Z,34.57502
2023-01-17T06:42:03.827Z,34.47652
2023-01-17T06:47:04.838Z,34.41258
2023-01-17T06:52:05.753Z,34.34341
2023-01-17T06:57:06.709Z,34.4079
2023-01-17T07:02:07.630Z,34.38514
2023-01-17T07:07:08.592Z,34.29759
2023-01-17T07:12:09.578Z,34.29139
2023-01-17T07:17:10.523Z,34.1135
2023-01-17T07:22:11.540Z,34.19373
2023-01-17T07:27:12.473Z,34.20577
2023-01-17T07:32:13.379Z,34.2114
2023-01-17T07:37:15.286Z,34.1582
2023-01-17T07:42:16.484Z,34.33902
2023-01-17T07:47:17.458Z,34.91972
2023-01-17T07:52:18.474Z,35.16236
2023-01-17T07:57:19.383Z,34.89457
2023-01-17T08:02:20.301Z,34.54658
2023-01-17T08:07:21.279Z,34.17949
2023-01-17T08:12:22.216Z,33.74082
2023-01-17T08:17:23.110Z,33.56835
2023-01-17T08:22:24.068Z,33.19616
2023-01-17T08:27:25.030Z,32.88724
2023-01-17T08:32:25.983Z,32.67452
2023-01-17T08:37:26.922Z,32.25014
2023-01-17T08:42:28.074Z,32.22218
2023-01-17T08:47:29.027Z,32.15374
2023-01-17T08:52:29.973Z,31.81645
2023-01-17T08:57:30.893Z,31.99751
2023-01-17T09:02:31.811Z,31.81813
2023-01-17T09:07:32.784Z,31.75152
2023-01-17T09:12:33.741Z,31.54368
2023-01-17T09:17:34.719Z,31.49036
2023-01-17T09:22:35.741Z,31.4378
2023-01-17T09:27:36.777Z,31.26716
2023-01-17T09:32:37.809Z,31.39087
2023-01-17T09:37:38.743Z,31.44043
2023-01-17T09:42:39.692Z,31.67265
2023-01-17T09:47:40.591Z,31.5079
2023-01-17T09:52:41.591Z,31.70433
2023-01-17T09:57:42.499Z,31.73227
2023-01-17T10:02:43.628Z,31.70246
2023-01-17T10:07:44.915Z,31.9113
2023-01-17T10:12:46.222Z,32.1563
2023-01-17T10:17:47.389Z,32.27
2023-01-17T10:22:48.309Z,32.42751
2023-01-17T10:27:49.226Z,32.47314
2023-01-17T10:32:50.228Z,32.5278
2023-01-17T10:37:51.140Z,32.68093
2023-01-17T10:42:52.061Z,32.67711
2023-01-17T10:47:53.001Z,32.68711
2023-01-17T10:52:53.924Z,32.69888
2023-01-17T10:57:54.833Z,32.71086
2023-01-17T11:02:55.866Z,32.75779
2023-01-17T11:07:56.854Z,32.64624
2023-01-17T11:12:57.744Z,32.78495
2023-01-17T11:17:58.660Z,33.15175
2023-01-17T11:22:59.557Z,33.41175
2023-01-17T11:28:00.484Z,33.05332
2023-01-17T11:33:01.649Z,33.15319
2023-01-17T11:38:02.589Z,33.40214
2023-01-17T11:43:03.621Z,33.86158
2023-01-17T11:48:04.601Z,33.97308
2023-01-17T11:53:05.514Z,34.11473
2023-01-17T11:58:06.420Z,34.48477
2023-01-17T12:03:07.349Z,34.55927
2023-01-17T12:08:08.319Z,34.57485
2023-01-17T12:13:09.232Z,34.26384
2023-01-17T12:18:10.152Z,32.74934
2023-01-17T12:23:11.149Z,31.75604
2023-01-17T12:28:12.081Z,31.34772
2023-01-17T12:33:13.121Z,28.93829
2023-01-17T12:38:23.689Z,29.93283
2023-01-17T12:43:32.491Z,28.02798
2023-01-17T12:48:33.399Z,21.70066
2023-01-17T12:53:34.447Z,18.35882
2023-01-17T12:58:35.370Z,14.89947
2023-01-17T13:03:36.310Z,13.7397
2023-01-17T13:08:37.275Z,16.99934
2023-01-17T13:13:38.192Z,19.5769
2023-01-17T13:18:39.089Z,21.46181
2023-01-17T13:23:40.000Z,22.71926
2023-01-17T13:28:40.935Z,23.77105
2023-01-17T13:33:41.864Z,24.75442
2023-01-17T13:38:42.765Z,25.35906
2023-01-17T13:43:43.731Z,26.05159
2023-01-17T13:48:44.702Z,26.4964
2023-01-17T13:53:46.021Z,27.05012
2023-01-17T13:58:47.113Z,27.2855
2023-01-17T14:03:48.048Z,27.56144
2023-01-17T14:08:49.035Z,27.81235
2023-01-17T14:13:49.965Z,28.15975
2023-01-17T14:18:50.909Z,28.26349
2023-01-17T14:23:51.860Z,28.35746
2023-01-17T14:28:52.785Z,28.408
2023-01-17T14:33:53.760Z,28.47442
2023-01-17T14:38:54.677Z,28.57501
2023-01-17T14:43:55.641Z,28.58207
2023-01-17T14:48:56.594Z,28.65177
2023-01-17T14:53:57.529Z,28.72608
2023-01-17T14:58:58.509Z,28.69826
2023-01-17T15:03:59.546Z,28.74421
2023-01-17T15:09:00.501Z,28.9395
2023-01-17T15:14:01.454Z,28.94751
2023-01-17T15:19:02.449Z,28.97953
2023-01-17T15:24:03.411Z,29.0289
2023-01-17T15:29:04.355Z,28.95725
2023-01-17T15:34:05.259Z,29.08875
2023-01-17T15:39:06.184Z,29.09167
2023-01-17T15:44:07.159Z,29.32
2023-01-17T15:49:08.180Z,29.33233
2023-01-17T15:54:09.160Z,29.39255
2023-01-17T15:59:10.097Z,29.42891
2023-01-17T16:04:11.016Z,29.55132
2023-01-17T16:09:11.998Z,29.53379
2023-01-17T16:14:12.927Z,29.65639
2023-01-17T16:19:13.829Z,29.77339
2023-01-17T16:24:14.781Z,29.86696
2023-01-17T16:29:15.745Z,29.99648
2023-01-17T16:34:16.704Z,30.15481
2023-01-17T16:39:17.627Z,30.38281
2023-01-17T16:44:18.592Z,30.55764
2023-01-17T16:49:19.532Z,30.65092
2023-01-17T16:54:20.496Z,30.76261
2023-01-17T16:59:21.392Z,30.82641
2023-01-17T17:04:22.277Z,30.96199
2023-01-17T17:09:23.250Z,31.04486
2023-01-17T17:14:24.155Z,31.17943
2023-01-17T17:19:25.055Z,31.38912
2023-01-17T17:24:25.999Z,31.49394
2023-01-17T17:29:26.974Z,31.59781
2023-01-17T17:34:27.874Z,31.71886
2023-01-17T17:39:28.804Z,31.79471
2023-01-17T17:44:29.747Z,32.06241
2023-01-17T17:49:30.671Z,32.12604
2023-01-17T17:54:31.636Z,32.1834
2023-01-17T17:59:32.552Z,32.47972
2023-01-17T18:04:33.507Z,32.58401
2023-01-17T18:09:34.454Z,32.80463
2023-01-17T18:14:35.355Z,32.91511
2023-01-17T18:19:36.283Z,32.96251
2023-01-17T18:24:37.215Z,33.00941
2023-01-17T18:29:38.541Z,33.17127
2023-01-17T18:34:39.575Z,33.23518
2023-01-17T18:39:40.470Z,33.2307
2023-01-17T18:44:41.455Z,33.31284
2023-01-17T18:49:42.383Z,33.43471
2023-01-17T18:54:43.321Z,33.43552
2023-01-17T18:59:44.257Z,33.69071
2023-01-17T19:04:45.411Z,33.80077
2023-01-17T19:09:46.725Z,33.80767
2023-01-17T19:14:47.655Z,33.883
2023-01-17T19:19:48.840Z,33.90093
2023-01-17T19:24:50.240Z,33.89068
2023-01-17T19:29:51.208Z,34.06928
2023-01-17T19:34:52.152Z,34.28288
2023-01-17T19:39:53.070Z,34.47909
2023-01-17T19:44:53.997Z,34.50156
2023-01-17T19:49:55.072Z,34.52456
2023-01-17T19:54:56.028Z,34.4151
2023-01-17T19:59:56.978Z,34.40447
2023-01-17T20:04:57.932Z,34.41154
2023-01-17T20:09:58.848Z,34.41784
2023-01-17T20:14:59.781Z,34.41918
2023-01-17T20:20:00.733Z,34.42549
2023-01-17T20:25:01.702Z,34.42072
2023-01-17T20:30:14.827Z,34.50757
2023-01-17T20:35:20.591Z,34.62879
2023-01-17T20:40:21.541Z,34.75031
2023-01-17T20:45:22.488Z,34.67012
2023-01-17T20:50:23.418Z,34.81374
2023-01-17T20:55:24.433Z,34.8482
2023-01-17T21:00:25.403Z,34.84911
2023-01-17T21:05:26.737Z,35.03889
2023-01-17T21:10:32.888Z,35.10203
2023-01-17T21:15:33.917Z,35.15367
2023-01-17T21:20:35.300Z,35.21105
2023-01-17T21:25:36.250Z,35.09639
2023-01-17T21:30:37.255Z,35.30854
2023-01-17T21:35:38.233Z,35.29689
2023-01-17T21:40:39.230Z,35.30311
2023-01-17T21:45:40.204Z,35.41216
2023-01-17T21:50:41.159Z,35.3844
2023-01-17T21:55:42.112Z,35.47007
2023-01-17T22:00:43.055Z,35.24126
2023-01-17T22:05:44.023Z,35.48244
2023-01-17T22:10:45.069Z,35.48221
2023-01-17T22:15:46.273Z,35.46576
2023-01-17T22:20:47.318Z,35.3625
2023-01-17T22:25:48.269Z,35.42542
2023-01-17T22:30:49.244Z,35.38485
2023-01-17T22:35:50.211Z,35.15654
2023-01-17T22:40:51.180Z,35.29468
2023-01-17T22:45:52.093Z,35.39795
2023-01-17T22:50:53.003Z,35.39766
2023-01-17T22:55:54.008Z,35.18022
2023-01-17T23:00:54.939Z,35.10609
2023-01-17T23:05:55.878Z,35.15795
2023-01-17T23:10:56.836Z,35.28971
2023-01-17T23:15:58.181Z,35.31239
2023-01-17T23:21:05.298Z,35.14713
2023-01-17T23:26:06.244Z,35.20994
2023-01-17T23:31:07.264Z,35.17624
2023-01-17T23:36:08.205Z,35.23995
2023-01-17T23:41:09.144Z,35.27999
2023-01-17T23:46:10.130Z,35.23444
2023-01-17T23:51:11.039Z,35.26334
2023-01-17T23:56:12.041Z,35.28697
